Time;durP1;ratioP1;P1;durP2;ratioP2;P2;SDS_P1;SDS_P2;PMS_P1;PMS_P2;Temp;Humidity;BMP_temperature;BMP_pressure;BME280_temperature;BME280_humidity;BME280_pressure;Samples;Min_cycle;Max_cycle;Signal;HPM_P1;HPM_P2
2021/12/03 00:00:42;;;;;;;19.85;11.27;;;2.00;99.90;;;;;;5074843;28;20025;-83
2021/12/03 00:03:09;;;;;;;22.77;11.70;;;2.00;99.90;;;;;;5073478;28;20468;-84
2021/12/03 00:05:35;;;;;;;18.80;11.25;;;1.90;99.90;;;;;;5074737;28;20127;-83
2021/12/03 00:08:00;;;;;;;20.33;11.93;;;1.80;99.90;;;;;;5074867;28;20024;-83
2021/12/03 00:10:26;;;;;;;19.33;11.15;;;1.90;99.90;;;;;;5075074;28;20024;-84
2021/12/03 00:12:54;;;;;;;16.15;11.13;;;1.80;99.90;;;;;;5073444;28;20431;-84
2021/12/03 00:15:25;;;;;;;17.95;10.98;;;1.80;99.90;;;;;;5074528;28;20173;-83
2021/12/03 00:17:51;;;;;;;16.30;11.00;;;1.90;99.90;;;;;;5073208;28;20435;-83
2021/12/03 00:20:18;;;;;;;23.27;11.15;;;1.80;99.90;;;;;;5074701;28;20028;-84
2021/12/03 00:22:47;;;;;;;18.35;11.68;;;1.90;99.90;;;;;;5074497;28;20095;-83
2021/12/03 00:25:13;;;;;;;17.92;11.38;;;1.90;99.90;;;;;;5074538;28;20481;-84
2021/12/03 00:27:40;;;;;;;19.95;11.90;;;2.00;99.90;;;;;;5074542;28;20028;-84
2021/12/03 00:30:08;;;;;;;19.63;12.00;;;2.10;99.90;;;;;;5073342;28;20115;-84
2021/12/03 00:32:34;;;;;;;20.80;11.27;;;2.10;99.90;;;;;;5073086;28;20504;-83
2021/12/03 00:35:00;;;;;;;23.73;12.05;;;2.20;99.90;;;;;;5074652;28;20036;-83
2021/12/03 00:37:25;;;;;;;27.20;15.15;;;2.30;99.90;;;;;;5074225;28;20036;-84
2021/12/03 00:39:51;;;;;;;33.33;16.38;;;2.30;99.90;;;;;;5074306;28;20112;-83
2021/12/03 00:42:18;;;;;;;28.63;16.65;;;2.40;99.90;;;;;;5074220;28;20028;-84
2021/12/03 00:44:50;;;;;;;27.77;16.15;;;2.40;99.90;;;;;;5072795;28;20039;-84
2021/12/03 00:47:16;;;;;;;31.80;16.35;;;2.50;99.90;;;;;;5074175;28;20036;-83
2021/12/03 00:49:42;;;;;;;30.95;16.90;;;2.50;99.90;;;;;;5073204;28;20013;-84
2021/12/03 00:52:08;;;;;;;25.98;16.33;;;2.50;99.90;;;;;;5073932;28;20032;-83
2021/12/03 00:54:34;;;;;;;29.90;17.30;;;2.50;99.90;;;;;;5074026;28;20230;-83
2021/12/03 00:56:59;;;;;;;28.13;16.65;;;2.50;99.90;;;;;;5074280;28;20020;-83
2021/12/03 00:59:25;;;;;;;31.73;17.67;;;2.60;99.90;;;;;;5072598;28;20021;-84
2021/12/03 01:01:51;;;;;;;36.05;18.88;;;2.60;99.90;;;;;;5073795;28;20020;-84
2021/12/03 01:04:17;;;;;;;34.20;18.00;;;2.60;99.90;;;;;;5073651;28;20569;-83
2021/12/03 01:06:43;;;;;;;33.17;18.13;;;2.60;99.90;;;;;;5072388;28;20036;-83
2021/12/03 01:09:09;;;;;;;27.15;16.80;;;2.70;99.90;;;;;;5073650;28;20506;-84
2021/12/03 01:11:34;;;;;;;30.70;18.48;;;2.70;99.90;;;;;;5073748;28;20442;-83
2021/12/03 01:14:01;;;;;;;30.40;17.25;;;2.70;99.90;;;;;;5073790;28;20032;-84
2021/12/03 01:16:28;;;;;;;34.08;18.10;;;2.70;99.90;;;;;;5073571;28;20097;-84
2021/12/03 01:18:55;;;;;;;34.45;17.75;;;2.80;99.90;;;;;;5073529;28;20511;-83
2021/12/03 01:21:21;;;;;;;34.22;18.23;;;2.80;99.90;;;;;;5073413;28;20028;-83
2021/12/03 01:23:47;;;;;;;27.88;16.63;;;2.80;99.90;;;;;;5073559;28;20032;-84
2021/12/03 01:26:13;;;;;;;28.52;16.35;;;2.80;99.90;;;;;;5073375;28;20035;-84
2021/12/03 01:28:40;;;;;;;27.45;16.70;;;2.80;99.90;;;;;;5073197;28;20013;-83
2021/12/03 01:31:06;;;;;;;26.75;16.52;;;2.80;99.90;;;;;;5073351;28;20039;-84
2021/12/03 01:33:32;;;;;;;25.60;16.23;;;2.80;99.90;;;;;;5073433;28;20024;-83
2021/12/03 01:35:58;;;;;;;33.70;15.73;;;2.70;99.90;;;;;;5073229;28;20556;-84
2021/12/03 01:38:23;;;;;;;21.65;14.55;;;2.90;99.90;;;;;;5073251;28;20194;-84
2021/12/03 01:40:50;;;;;;;29.00;14.98;;;2.80;99.90;;;;;;5073022;28;20020;-83
2021/12/03 01:43:24;;;;;;;24.90;14.65;;;2.90;99.90;;;;;;5073152;28;20100;-83
2021/12/03 01:45:58;;;;;;;24.52;15.07;;;2.90;99.90;;;;;;5071636;28;20059;-83
2021/12/03 01:48:25;;;;;;;23.38;14.98;;;2.90;99.90;;;;;;5072942;28;20221;-83
2021/12/03 01:50:51;;;;;;;26.73;15.95;;;3.00;99.90;;;;;;5072870;28;20482;-84
2021/12/03 01:53:19;;;;;;;31.25;15.40;;;2.90;99.90;;;;;;5072866;28;20055;-83
2021/12/03 01:55:46;;;;;;;25.05;15.63;;;3.00;99.90;;;;;;5072811;28;20480;-83
2021/12/03 01:58:12;;;;;;;29.60;16.45;;;3.00;99.90;;;;;;5072739;28;20022;-84
2021/12/03 02:00:54;;;;;;;23.05;15.32;;;3.00;99.90;;;;;;5072655;28;20051;-84
2021/12/03 02:03:25;;;;;;;26.15;16.38;;;2.90;99.90;;;;;;5072769;28;20472;-83
2021/12/03 02:05:52;;;;;;;28.73;16.20;;;2.90;99.90;;;;;;5071135;28;20037;-83
2021/12/03 02:08:18;;;;;;;24.48;16.48;;;2.90;99.90;;;;;;5071247;28;20029;-84
2021/12/03 02:10:44;;;;;;;28.33;17.05;;;2.80;99.90;;;;;;5071207;28;20122;-83
2021/12/03 02:13:12;;;;;;;30.60;15.93;;;2.90;99.90;;;;;;5072337;28;20016;-84
2021/12/03 02:15:39;;;;;;;32.13;15.65;;;2.90;99.90;;;;;;5072056;28;20119;-83
2021/12/03 02:18:06;;;;;;;26.40;15.65;;;2.90;99.90;;;;;;5072619;28;20016;-84
2021/12/03 02:20:32;;;;;;;22.95;14.65;;;3.00;99.90;;;;;;5072696;28;20024;-84
2021/12/03 02:22:57;;;;;;;22.25;14.45;;;3.00;99.90;;;;;;5072245;28;20032;-84
2021/12/03 02:25:26;;;;;;;22.80;14.70;;;2.90;99.90;;;;;;5072059;28;20029;-84
2021/12/03 02:27:55;;;;;;;31.73;15.35;;;3.00;99.90;;;;;;5071951;28;20021;-84
2021/12/03 02:30:21;;;;;;;21.08;13.65;;;2.90;99.90;;;;;;5071895;28;20484;-84
2021/12/03 02:32:49;;;;;;;28.20;14.88;;;2.90;99.90;;;;;;5070725;28;20078;-83
2021/12/03 02:35:16;;;;;;;24.47;14.07;;;3.00;99.90;;;;;;5072019;28;20024;-83
2021/12/03 02:37:43;;;;;;;22.27;14.07;;;3.00;99.90;;;;;;5071883;28;20016;-84
2021/12/03 02:40:10;;;;;;;23.02;14.27;;;3.10;99.90;;;;;;5071875;28;20016;-84
2021/12/03 02:42:36;;;;;;;23.13;14.30;;;3.10;99.90;;;;;;5072155;28;20021;-84
2021/12/03 02:45:03;;;;;;;25.88;14.82;;;3.10;99.90;;;;;;5071773;28;20027;-84
2021/12/03 02:47:29;;;;;;;21.73;13.93;;;3.20;99.90;;;;;;5071870;28;20032;-84
2021/12/03 02:49:55;;;;;;;25.05;15.38;;;3.20;99.90;;;;;;5071919;28;20124;-84
2021/12/03 02:52:21;;;;;;;24.58;15.05;;;3.20;99.90;;;;;;5071818;28;20543;-84
2021/12/03 02:54:47;;;;;;;24.80;15.13;;;3.20;99.90;;;;;;5070513;28;20028;-84
2021/12/03 02:57:12;;;;;;;24.38;14.13;;;3.20;99.90;;;;;;5071868;28;20024;-84
2021/12/03 02:59:38;;;;;;;24.00;15.52;;;3.20;99.90;;;;;;5071889;28;20107;-84
2021/12/03 03:02:04;;;;;;;22.65;14.48;;;3.20;99.90;;;;;;5072014;28;20135;-84
2021/12/03 03:04:29;;;;;;;23.25;14.15;;;3.20;99.90;;;;;;5070244;28;20024;-84
2021/12/03 03:06:55;;;;;;;24.10;15.13;;;3.20;99.90;;;;;;5070330;28;20024;-84
2021/12/03 03:09:21;;;;;;;22.27;14.73;;;3.20;99.90;;;;;;5070333;28;20025;-84
2021/12/03 03:11:47;;;;;;;26.48;14.70;;;3.30;99.90;;;;;;5071336;28;20388;-83
2021/12/03 03:14:13;;;;;;;23.73;14.60;;;3.20;99.90;;;;;;5071489;28;20408;-84
2021/12/03 03:16:39;;;;;;;24.38;13.23;;;3.20;99.90;;;;;;5071763;28;20111;-84
2021/12/03 03:19:31;;;;;;;26.90;13.50;;;3.20;99.90;;;;;;5071805;28;20105;-84
2021/12/03 03:21:56;;;;;;;25.65;13.75;;;3.20;99.90;;;;;;5069471;28;20036;-84
2021/12/03 03:24:22;;;;;;;25.42;14.63;;;3.30;99.90;;;;;;5071365;28;20029;-84
2021/12/03 03:26:48;;;;;;;20.65;13.07;;;3.30;99.90;;;;;;5071451;28;20089;-85
2021/12/03 03:29:16;;;;;;;26.58;13.90;;;3.30;99.90;;;;;;5071401;28;20024;-85
2021/12/03 03:31:41;;;;;;;23.57;14.23;;;3.30;99.90;;;;;;5082816;28;20068;-83
2021/12/03 03:34:09;;;;;;;25.67;14.43;;;3.00;99.90;;;;;;5075655;28;20099;-84
2021/12/03 03:36:42;;;;;;;19.90;12.57;;;2.90;99.90;;;;;;5091103;28;20031;-83
2021/12/03 03:39:11;;;;;;;25.65;12.52;;;3.10;99.90;;;;;;5091851;28;20069;-84
2021/12/03 03:41:37;;;;;;;19.77;11.98;;;3.10;99.90;;;;;;5091595;28;20153;-84
2021/12/03 03:44:03;;;;;;;19.77;11.13;;;3.20;99.90;;;;;;5089512;28;20024;-83
2021/12/03 03:46:29;;;;;;;17.98;9.80;;;3.20;99.90;;;;;;5083636;28;20444;-84
2021/12/03 03:48:55;;;;;;;16.48;10.07;;;3.20;99.90;;;;;;5072598;28;20114;-83
2021/12/03 03:51:21;;;;;;;19.85;9.85;;;3.30;99.90;;;;;;5083999;28;20036;-83
2021/12/03 03:53:47;;;;;;;19.52;10.25;;;3.40;99.90;;;;;;5091450;28;20020;-83
2021/12/03 03:56:13;;;;;;;15.27;9.55;;;3.50;99.90;;;;;;5091259;28;20020;-84
2021/12/03 03:58:41;;;;;;;15.52;9.75;;;3.40;99.90;;;;;;5091735;28;20039;-84
2021/12/03 04:01:10;;;;;;;19.92;10.27;;;3.50;99.90;;;;;;5091669;28;20104;-84
2021/12/03 04:03:36;;;;;;;17.45;9.88;;;3.50;99.90;;;;;;5088622;28;20066;-83
2021/12/03 04:06:02;;;;;;;15.13;10.02;;;3.50;99.90;;;;;;5091115;28;20063;-84
2021/12/03 04:08:29;;;;;;;16.38;9.95;;;3.60;99.90;;;;;;5091255;28;20518;-83
2021/12/03 04:10:56;;;;;;;15.63;9.52;;;3.70;99.90;;;;;;5091290;28;20094;-83
2021/12/03 04:13:22;;;;;;;15.95;9.18;;;3.60;99.90;;;;;;5091030;28;20009;-82
2021/12/03 04:15:48;;;;;;;16.70;9.43;;;3.70;99.90;;;;;;5089873;28;20400;-83
2021/12/03 04:18:14;;;;;;;19.10;10.63;;;3.70;99.90;;;;;;5090792;28;20040;-82
2021/12/03 04:20:39;;;;;;;15.35;9.68;;;3.60;99.90;;;;;;5091541;28;20070;-83
2021/12/03 04:23:05;;;;;;;15.15;9.13;;;3.60;99.90;;;;;;5091288;28;20052;-83
2021/12/03 04:25:31;;;;;;;15.20;9.20;;;3.60;99.90;;;;;;5094290;28;20036;-83
2021/12/03 04:27:56;;;;;;;18.08;8.90;;;3.70;99.90;;;;;;5093500;28;20392;-82
2021/12/03 04:30:28;;;;;;;17.42;10.40;;;3.80;99.90;;;;;;5094449;28;20027;-83
2021/12/03 04:32:55;;;;;;;14.25;8.48;;;3.80;99.90;;;;;;5093092;28;20027;-82
2021/12/03 04:35:21;;;;;;;12.70;8.48;;;3.90;99.90;;;;;;5094583;28;20019;-83
2021/12/03 04:37:47;;;;;;;14.40;8.27;;;4.00;99.90;;;;;;5093357;28;20514;-83
2021/12/03 04:40:15;;;;;;;15.48;7.97;;;4.00;99.90;;;;;;5079001;28;20048;-83
2021/12/03 04:42:41;;;;;;;16.50;8.55;;;4.00;99.90;;;;;;5072995;28;20024;-82
2021/12/03 04:45:08;;;;;;;13.40;8.63;;;4.10;99.90;;;;;;5073632;28;20409;-83
2021/12/03 04:47:34;;;;;;;17.87;8.93;;;4.10;99.90;;;;;;5074063;28;20469;-84
2021/12/03 04:50:01;;;;;;;15.13;8.15;;;4.10;99.90;;;;;;5090505;28;20032;-83
2021/12/03 04:52:27;;;;;;;16.40;8.15;;;4.10;99.90;;;;;;5094225;28;20024;-83
2021/12/03 04:54:52;;;;;;;13.88;7.70;;;4.20;99.90;;;;;;5087133;28;20020;-83
2021/12/03 04:57:18;;;;;;;11.25;7.53;;;4.10;99.90;;;;;;5074025;28;20495;-83
2021/12/03 04:59:44;;;;;;;13.27;7.55;;;4.10;99.90;;;;;;5073717;28;20503;-83
2021/12/03 05:02:10;;;;;;;16.45;8.70;;;4.10;99.90;;;;;;5088041;28;20024;-83
2021/12/03 05:04:38;;;;;;;18.20;8.43;;;4.20;99.90;;;;;;5093656;28;20036;-83
2021/12/03 05:09:35;;;;;;;16.27;8.85;;;4.20;99.90;;;;;;5093713;28;20356;-83
2021/12/03 05:12:01;;;;;;;12.75;9.45;;;4.20;99.90;;;;;;5094019;28;20063;-83
2021/12/03 05:14:27;;;;;;;14.27;8.50;;;4.20;99.90;;;;;;5091821;28;20078;-83
2021/12/03 05:16:53;;;;;;;14.90;8.40;;;4.20;99.90;;;;;;5073629;28;20028;-82
2021/12/03 05:19:18;;;;;;;16.65;8.23;;;4.20;99.90;;;;;;5073752;28;20024;-82
2021/12/03 05:21:44;;;;;;;14.50;8.45;;;4.30;99.90;;;;;;5074033;28;20012;-83
2021/12/03 05:24:11;;;;;;;15.27;9.10;;;4.30;99.90;;;;;;5086845;28;20028;-82
2021/12/03 05:26:38;;;;;;;16.27;8.93;;;4.30;99.90;;;;;;5093472;28;20043;-83
2021/12/03 05:29:05;;;;;;;11.45;8.13;;;4.30;99.90;;;;;;5093728;28;20080;-83
2021/12/03 05:31:31;;;;;;;14.68;8.55;;;4.30;99.90;;;;;;5093569;28;20032;-82
2021/12/03 05:33:57;;;;;;;12.65;9.38;;;4.30;99.90;;;;;;5093486;28;20443;-88
2021/12/03 05:36:23;;;;;;;13.55;8.23;;;4.30;99.90;;;;;;5091724;28;20078;-86
2021/12/03 05:38:49;;;;;;;13.68;8.27;;;4.30;99.90;;;;;;5093332;28;20073;-87
2021/12/03 05:41:16;;;;;;;12.55;7.28;;;4.40;99.90;;;;;;5093824;28;20063;-87
2021/12/03 05:43:42;;;;;;;16.20;7.95;;;4.40;99.90;;;;;;5092213;28;20031;-87
2021/12/03 05:46:07;;;;;;;12.77;6.82;;;4.40;99.90;;;;;;5091850;28;20040;-86
2021/12/03 05:48:33;;;;;;;9.00;6.03;;;4.40;99.90;;;;;;5093063;28;20024;-86
2021/12/03 05:50:59;;;;;;;11.45;6.10;;;4.40;99.90;;;;;;5093223;28;20060;-86
2021/12/03 05:53:25;;;;;;;11.82;6.10;;;4.40;99.90;;;;;;5093139;28;20464;-87
2021/12/03 05:55:51;;;;;;;11.30;5.60;;;4.40;99.90;;;;;;5093052;28;20021;-86
2021/12/03 05:58:17;;;;;;;13.25;5.88;;;4.40;99.90;;;;;;5093189;28;20420;-86
2021/12/03 06:00:44;;;;;;;7.53;5.25;;;4.50;99.90;;;;;;5091835;28;20031;-86
2021/12/03 06:03:11;;;;;;;8.88;5.05;;;4.50;99.90;;;;;;5092863;28;20024;-86
2021/12/03 06:05:39;;;;;;;7.45;4.75;;;4.50;99.90;;;;;;5091480;28;20196;-86
2021/12/03 06:08:04;;;;;;;11.02;4.93;;;4.60;99.90;;;;;;5090337;28;20016;-85
2021/12/03 06:10:30;;;;;;;8.05;5.10;;;4.60;99.90;;;;;;5080209;28;20043;-86
2021/12/03 06:12:57;;;;;;;6.82;4.82;;;4.60;99.90;;;;;;5089759;28;20567;-86
2021/12/03 06:15:22;;;;;;;8.45;4.38;;;4.70;99.90;;;;;;5086058;28;20103;-86
2021/12/03 06:17:48;;;;;;;10.55;5.13;;;4.70;99.90;;;;;;5078938;28;20055;-86
2021/12/03 06:20:16;;;;;;;9.30;4.38;;;4.70;99.90;;;;;;5085410;28;20078;-86
2021/12/03 06:22:42;;;;;;;8.85;4.10;;;4.70;99.90;;;;;;5079273;28;20055;-86
2021/12/03 06:25:10;;;;;;;9.43;4.53;;;4.70;99.90;;;;;;5073954;28;20064;-86
2021/12/03 06:27:37;;;;;;;10.43;3.90;;;4.80;99.90;;;;;;5071561;28;20028;-85
2021/12/03 06:30:07;;;;;;;7.82;4.25;;;4.80;99.90;;;;;;5070797;28;20064;-86
2021/12/03 06:32:33;;;;;;;11.07;5.35;;;4.80;99.90;;;;;;5070714;28;20028;-86
2021/12/03 06:34:59;;;;;;;10.15;4.80;;;4.80;99.90;;;;;;5070761;28;20111;-85
2021/12/03 06:37:24;;;;;;;10.25;4.72;;;4.80;99.90;;;;;;5070615;28;20452;-86
2021/12/03 06:39:50;;;;;;;7.85;4.43;;;4.90;99.90;;;;;;5071830;28;20032;-86
2021/12/03 06:42:16;;;;;;;10.35;4.45;;;4.90;99.90;;;;;;5070719;28;20025;-85
2021/12/03 06:44:41;;;;;;;7.72;4.47;;;4.80;99.90;;;;;;5072209;28;20108;-85
2021/12/03 06:47:07;;;;;;;10.98;4.75;;;4.80;99.90;;;;;;5071338;28;20036;-87
2021/12/03 06:49:34;;;;;;;8.77;4.80;;;4.80;99.90;;;;;;5070720;28;20024;-85
2021/12/03 06:52:04;;;;;;;14.50;5.35;;;4.90;99.90;;;;;;5070540;28;20025;-86
2021/12/03 06:54:32;;;;;;;10.20;4.75;;;4.90;99.90;;;;;;5071596;28;20024;-87
2021/12/03 06:56:59;;;;;;;7.63;4.60;;;4.90;99.90;;;;;;5070552;28;20025;-86
2021/12/03 06:59:25;;;;;;;10.70;5.57;;;4.90;99.90;;;;;;5071646;28;20060;-86
2021/12/03 07:01:52;;;;;;;12.02;5.70;;;4.90;99.90;;;;;;5072039;28;20024;-86
2021/12/03 07:04:18;;;;;;;10.63;5.35;;;4.80;99.90;;;;;;5070821;28;20039;-87
2021/12/03 07:06:45;;;;;;;10.75;5.10;;;4.90;99.90;;;;;;5071009;28;20029;-87
2021/12/03 07:09:11;;;;;;;11.40;6.00;;;5.00;99.90;;;;;;5070111;28;20079;-86
2021/12/03 07:11:37;;;;;;;8.43;5.03;;;5.00;99.90;;;;;;5070136;28;20020;-86
2021/12/03 07:14:03;;;;;;;8.43;5.25;;;5.00;99.90;;;;;;5070518;28;20032;-85
2021/12/03 07:16:29;;;;;;;10.40;5.50;;;5.00;99.90;;;;;;5069626;28;20501;-86
2021/12/03 07:18:57;;;;;;;12.25;6.10;;;5.30;99.90;;;;;;5069458;28;20512;-86
2021/12/03 07:21:23;;;;;;;10.90;6.15;;;5.10;99.90;;;;;;5070309;28;20498;-86
2021/12/03 07:23:50;;;;;;;11.65;7.43;;;5.10;99.90;;;;;;5071737;28;20025;-86
2021/12/03 07:26:16;;;;;;;10.32;5.43;;;5.10;99.90;;;;;;5070162;28;20037;-85
2021/12/03 07:28:43;;;;;;;13.63;6.00;;;5.20;99.90;;;;;;5071536;28;20418;-86
2021/12/03 07:31:09;;;;;;;12.88;6.40;;;5.10;99.90;;;;;;5071533;28;20021;-86
2021/12/03 07:33:35;;;;;;;10.52;5.68;;;5.20;99.90;;;;;;5071503;28;20024;-86
2021/12/03 07:36:01;;;;;;;8.43;5.78;;;5.20;99.90;;;;;;5071500;28;20028;-86
2021/12/03 07:38:27;;;;;;;9.80;5.70;;;5.20;99.90;;;;;;5070872;28;20016;-85
2021/12/03 07:40:52;;;;;;;11.98;5.30;;;5.30;99.90;;;;;;5071019;28;20499;-86
2021/12/03 07:43:19;;;;;;;11.43;5.10;;;5.30;99.90;;;;;;5071613;28;20104;-86
2021/12/03 07:45:45;;;;;;;11.05;5.10;;;5.30;99.90;;;;;;5071262;28;20404;-86
2021/12/03 07:48:11;;;;;;;8.32;4.78;;;5.40;99.90;;;;;;5070600;28;20020;-87
2021/12/03 07:50:39;;;;;;;12.25;4.90;;;5.40;99.90;;;;;;5069405;28;20055;-86
2021/12/03 07:53:06;;;;;;;7.17;3.93;;;5.50;99.90;;;;;;5070061;28;20021;-86
2021/12/03 07:55:34;;;;;;;6.40;4.00;;;5.60;99.90;;;;;;5071219;28;20493;-86
2021/12/03 07:58:01;;;;;;;;;;;5.60;99.90;;;;;;5071526;28;20048;-87
2021/12/03 08:00:27;;;;;;;7.65;3.67;;;5.60;99.90;;;;;;5073943;28;19905;-86
2021/12/03 08:02:53;;;;;;;5.60;3.95;;;5.70;99.90;;;;;;5075435;28;20047;-86
2021/12/03 08:05:18;;;;;;;6.63;3.83;;;5.90;99.90;;;;;;5074929;28;20060;-86
2021/12/03 08:07:47;;;;;;;8.13;4.35;;;5.90;99.90;;;;;;5074998;28;20025;-86
2021/12/03 08:10:14;;;;;;;9.23;4.88;;;5.90;99.90;;;;;;5075147;28;20032;-86
2021/12/03 08:12:40;;;;;;;6.13;4.03;;;6.00;99.90;;;;;;5074911;28;20078;-87
2021/12/03 08:15:07;;;;;;;9.18;4.47;;;6.10;99.90;;;;;;5073532;28;20037;-87
2021/12/03 08:17:33;;;;;;;5.82;3.85;;;6.10;99.90;;;;;;5073514;28;20017;-86
2021/12/03 08:19:59;;;;;;;6.05;4.13;;;6.10;99.90;;;;;;5074655;28;20369;-87
2021/12/03 08:22:24;;;;;;;5.70;4.15;;;6.10;99.90;;;;;;5073662;28;20499;-86
2021/12/03 08:24:50;;;;;;;6.68;4.35;;;6.10;99.90;;;;;;5073564;28;20032;-86
2021/12/03 08:27:16;;;;;;;5.05;3.78;;;6.10;99.90;;;;;;5074499;28;20103;-86
2021/12/03 08:29:42;;;;;;;7.53;4.35;;;6.20;99.90;;;;;;5073232;28;20511;-86
2021/12/03 08:32:10;;;;;;;8.60;4.30;;;6.10;99.90;;;;;;5074401;28;20020;-86
2021/12/03 08:34:36;;;;;;;5.07;3.90;;;6.20;99.90;;;;;;5074480;28;20028;-86
2021/12/03 08:37:02;;;;;;;5.40;3.67;;;6.30;99.90;;;;;;5074450;28;20032;-86
2021/12/03 08:39:29;;;;;;;6.47;3.70;;;6.30;99.90;;;;;;5074466;28;20366;-86
2021/12/03 08:41:55;;;;;;;6.37;4.43;;;6.30;99.90;;;;;;5074785;28;20043;-85
2021/12/03 08:44:21;;;;;;;4.63;3.58;;;6.30;99.90;;;;;;5074462;28;20021;-86
2021/12/03 08:46:52;;;;;;;6.60;3.92;;;6.40;99.90;;;;;;5074265;28;20032;-86
2021/12/03 08:49:28;;;;;;;7.63;3.92;;;6.50;99.90;;;;;;5074206;28;20027;-86
2021/12/03 08:57:30;;;;;;;5.95;4.00;;;6.50;99.90;;;;;;5074351;28;20034;-86
2021/12/03 08:59:59;;;;;;;8.32;4.32;;;6.60;99.90;;;;;;5074307;28;20028;-85
2021/12/03 09:02:25;;;;;;;5.57;3.78;;;6.70;99.90;;;;;;5074245;28;20047;-86
2021/12/03 09:04:51;;;;;;;6.20;4.38;;;6.70;99.90;;;;;;5073736;28;20396;-87
2021/12/03 09:07:17;;;;;;;6.88;3.95;;;6.80;99.90;;;;;;5073837;28;20052;-86
2021/12/03 09:09:43;;;;;;;9.68;3.80;;;6.80;99.90;;;;;;5073018;28;20064;-85
2021/12/03 09:12:09;;;;;;;4.25;3.70;;;6.90;99.90;;;;;;5072537;28;20123;-86
2021/12/03 09:22:34;;;;;;;6.05;3.78;;;7.00;99.90;;;;;;5073739;28;20031;-85
2021/12/03 09:25:01;;;;;;;5.65;3.17;;;7.10;99.90;;;;;;5071949;28;20024;-85
2021/12/03 09:27:28;;;;;;;4.80;3.55;;;7.10;99.90;;;;;;5072495;28;20068;-86
2021/12/03 09:29:55;;;;;;;4.72;3.78;;;7.20;99.90;;;;;;5073773;28;20028;-86
2021/12/03 09:32:30;;;;;;;4.00;3.58;;;7.30;99.90;;;;;;5072088;28;20052;-86
2021/12/03 09:34:56;;;;;;;7.60;3.60;;;7.30;99.90;;;;;;5072334;28;20028;-85
2021/12/03 09:37:22;;;;;;;4.55;3.42;;;7.40;99.90;;;;;;5073430;28;20027;-86
2021/12/03 09:39:48;;;;;;;5.20;3.47;;;7.40;99.90;;;;;;5073324;28;20404;-86
2021/12/03 09:42:15;;;;;;;5.07;3.83;;;7.50;99.90;;;;;;5073109;28;20100;-85
2021/12/03 09:44:44;;;;;;;4.95;3.63;;;7.50;99.90;;;;;;5072969;28;20078;-86
2021/12/03 09:47:10;;;;;;;6.13;3.88;;;7.60;99.90;;;;;;5071808;28;20115;-86
2021/12/03 09:49:39;;;;;;;9.15;3.60;;;7.70;99.90;;;;;;5072989;28;20020;-86
2021/12/03 09:52:15;;;;;;;6.25;3.88;;;7.80;99.90;;;;;;5073109;28;20077;-86
2021/12/03 09:54:46;;;;;;;4.85;3.70;;;7.90;99.90;;;;;;5076959;28;20044;-86
2021/12/03 10:03:08;;;;;;;4.25;3.65;;;8.00;99.90;;;;;;5073278;28;20036;-85
2021/12/03 10:07:03;;;;;;;5.88;4.43;;;8.00;99.90;;;;;;5072748;28;20059;-86
2021/12/03 10:13:53;;;;;;;8.63;4.43;;;8.20;99.90;;;;;;5072695;28;20036;-85
2021/12/03 10:32:58;;;;;;;4.55;3.95;;;8.50;99.90;;;;;;5072417;28;20028;-85
2021/12/03 10:43:38;;;;;;;6.13;4.10;;;8.80;99.90;;;;;;5072070;28;20500;-85
2021/12/03 11:03:14;;;;;;;5.75;3.92;;;9.30;99.90;;;;;;5071861;28;20036;-85
2021/12/03 11:08:29;;;;;;;8.77;4.35;;;9.50;99.90;;;;;;5071831;28;20028;-86
2021/12/03 11:28:25;;;;;;;9.27;5.18;;;9.70;99.90;;;;;;5071432;28;20039;-86
2021/12/03 12:30:22;;;;;;;10.48;6.57;;;10.90;99.90;;;;;;5074928;28;20100;-87
2021/12/03 14:00:12;;;;;;;14.35;6.65;;;12.30;99.90;;;;;;5092962;28;20055;-87
2021/12/03 14:23:59;;;;;;;11.38;7.25;;;12.60;99.90;;;;;;5092645;28;20035;-87
2021/12/03 14:32:38;;;;;;;8.00;5.30;;;12.60;99.90;;;;;;5072351;28;20039;-87
2021/12/03 14:47:37;;;;;;;10.77;7.28;;;12.80;99.90;;;;;;5091146;28;20391;-88
2021/12/03 14:53:15;;;;;;;13.40;6.93;;;12.80;99.90;;;;;;5073709;28;20119;-88
2021/12/03 14:55:46;;;;;;;11.25;6.10;;;12.80;99.90;;;;;;5071216;28;20043;-88
2021/12/03 14:58:16;;;;;;;11.40;6.03;;;12.90;99.90;;;;;;5073894;28;20038;-87
2021/12/03 15:08:36;;;;;;;12.27;5.90;;;12.90;99.90;;;;;;5091348;28;20027;-87
2021/12/03 15:21:36;;;;;;;6.43;3.72;;;12.80;99.90;;;;;;5091783;28;19915;-87
2021/12/03 15:27:40;;;;;;;8.18;3.28;;;12.80;99.90;;;;;;5051632;28;20041;-88
2021/12/03 15:30:18;;;;;;;5.45;2.80;;;12.70;99.90;;;;;;5078100;28;20068;-85
2021/12/03 15:33:29;;;;;;;7.20;3.08;;;12.80;99.90;;;;;;5070482;28;20029;-87
2021/12/03 16:10:34;;;;;;;4.95;2.85;;;12.50;99.90;;;;;;5071627;28;19957;-89
2021/12/03 16:51:24;;;;;;;7.07;5.10;;;12.50;99.90;;;;;;5094552;28;20039;-90
2021/12/03 16:53:53;;;;;;;5.07;3.67;;;12.50;99.90;;;;;;5083068;28;20056;-88
2021/12/03 16:56:26;;;;;;;8.75;4.25;;;12.50;99.90;;;;;;5081403;28;20047;-90
2021/12/03 16:58:54;;;;;;;11.60;5.53;;;12.40;99.90;;;;;;5081924;28;20476;-89
2021/12/03 17:09:38;;;;;;;16.85;5.55;;;12.30;99.90;;;;;;5085301;28;20020;-92
2021/12/03 17:12:17;;;;;;;8.35;3.60;;;12.30;99.90;;;;;;5085794;28;20024;-91
2021/12/03 18:00:24;;;;;;;20.65;9.15;;;12.50;99.90;;;;;;5095198;28;20095;-92
2021/12/03 18:02:53;;;;;;;23.30;10.95;;;12.50;99.90;;;;;;5094652;28;20027;-94
2021/12/03 18:43:25;;;;;;;31.15;8.77;;;12.60;99.90;;;;;;5091860;28;20035;-88
2021/12/03 18:57:17;;;;;;;26.58;9.10;;;12.60;99.90;;;;;;5072939;28;19915;-92
2021/12/03 19:00:00;;;;;;;20.77;8.25;;;12.60;99.90;;;;;;5072034;28;20449;-93
2021/12/03 19:02:26;;;;;;;23.35;7.68;;;12.60;99.90;;;;;;5075249;28;20028;-93
2021/12/03 19:05:14;;;;;;;20.60;7.22;;;12.60;99.90;;;;;;5085735;28;20483;-93
2021/12/03 19:08:05;;;;;;;22.70;7.03;;;12.60;99.90;;;;;;5091725;28;20036;-93
2021/12/03 19:10:33;;;;;;;22.45;7.30;;;12.50;99.90;;;;;;5072183;28;20024;-92
2021/12/03 19:13:04;;;;;;;30.52;10.55;;;12.50;99.90;;;;;;5070595;28;20024;-90
2021/12/03 19:15:30;;;;;;;21.00;7.00;;;12.60;99.90;;;;;;5078638;28;20016;-92
2021/12/03 19:18:00;;;;;;;22.42;7.38;;;12.50;99.90;;;;;;5091907;28;20028;-94
2021/12/03 19:20:29;;;;;;;24.38;6.03;;;12.60;99.90;;;;;;5090669;28;20024;-93
2021/12/03 19:22:54;;;;;;;;;;;12.60;99.90;;;;;;5092599;28;20024;-90
2021/12/03 19:25:20;;;;;;;18.02;6.55;;;12.60;99.90;;;;;;5092870;28;19911;-92
2021/12/03 19:27:46;;;;;;;23.75;6.20;;;12.60;99.90;;;;;;5091464;28;20031;-93
2021/12/03 19:30:15;;;;;;;28.13;7.47;;;12.60;99.90;;;;;;5092506;28;20024;-94
2021/12/03 19:32:52;;;;;;;18.83;6.60;;;12.60;99.90;;;;;;5092483;28;20049;-94
2021/12/03 19:35:17;;;;;;;21.30;6.53;;;12.60;99.90;;;;;;5092661;28;20162;-93
2021/12/03 19:37:45;;;;;;;19.73;7.32;;;12.60;99.90;;;;;;5094697;28;20479;-89
2021/12/03 19:40:12;;;;;;;30.23;8.10;;;12.80;99.90;;;;;;5085788;28;20031;-93
2021/12/03 19:42:47;;;;;;;22.92;6.40;;;12.90;99.90;;;;;;5085163;28;20066;-93
2021/12/03 19:45:19;;;;;;;23.98;6.43;;;13.00;99.90;;;;;;5084418;28;20035;-92
2021/12/03 19:51:30;;;;;;;17.77;5.88;;;13.00;99.90;;;;;;5084103;28;20035;-90
2021/12/03 19:53:56;;;;;;;24.58;6.53;;;13.00;99.90;;;;;;5083565;28;20093;-91
2021/12/03 19:56:23;;;;;;;;;;;12.90;99.90;;;;;;5093283;28;20046;-90
2021/12/03 19:58:52;;;;;;;23.10;5.70;;;13.00;99.90;;;;;;5102642;28;19996;-89
2021/12/03 20:01:21;;;;;;;26.80;6.28;;;12.90;99.90;;;;;;5092699;28;20032;-92
2021/12/03 20:03:48;;;;;;;34.90;6.68;;;12.90;99.90;;;;;;5079775;28;20027;-91
2021/12/03 20:06:21;;;;;;;21.13;5.07;;;12.90;99.90;;;;;;5089179;28;20032;-93
2021/12/03 20:08:50;;;;;;;22.30;5.80;;;12.90;99.90;;;;;;5084075;28;20036;-90
2021/12/03 20:11:16;;;;;;;25.63;5.88;;;12.90;99.90;;;;;;5085364;28;20016;-92
2021/12/03 20:13:46;;;;;;;23.48;5.78;;;12.90;99.90;;;;;;5080850;28;20055;-90
2021/12/03 20:18:45;;;;;;;;;;;12.90;99.90;;;;;;5079074;28;20040;-91
2021/12/03 20:21:12;;;;;;;21.10;4.68;;;12.90;99.90;;;;;;5089922;28;19972;-90
2021/12/03 20:29:00;;;;;;;27.90;5.30;;;12.80;99.90;;;;;;5083626;28;20432;-88
2021/12/03 20:31:28;;;;;;;36.55;4.90;;;12.80;99.90;;;;;;5082639;28;20051;-88
2021/12/03 20:38:51;;;;;;;23.08;4.20;;;12.80;99.90;;;;;;5086127;28;20091;-89
2021/12/03 20:41:28;;;;;;;24.75;4.40;;;12.80;99.90;;;;;;5081570;28;20050;-89
2021/12/03 21:10:07;;;;;;;15.90;3.13;;;12.90;99.90;;;;;;5084572;28;20031;-90
2021/12/03 21:12:41;;;;;;;16.27;3.38;;;12.90;99.90;;;;;;5082797;28;20025;-92
2021/12/03 21:15:13;;;;;;;9.27;2.97;;;12.80;99.90;;;;;;5079832;28;20025;-87
2021/12/03 21:20:29;;;;;;;11.88;2.80;;;12.90;99.90;;;;;;5085240;28;20404;-90
2021/12/03 21:23:02;;;;;;;11.85;2.80;;;12.80;99.90;;;;;;5082236;28;20460;-89
2021/12/03 21:25:33;;;;;;;8.95;2.85;;;12.90;99.90;;;;;;5081720;28;20027;-88
2021/12/03 21:28:19;;;;;;;6.18;2.50;;;12.90;99.90;;;;;;5090917;28;20048;-89
2021/12/03 21:41:22;;;;;;;13.68;3.80;;;12.90;99.90;;;;;;5094299;28;20067;-92